Time;durP1;ratioP1;P1;durP2;ratioP2;P2;SDS_P1;SDS_P2;PMS_P1;PMS_P2;Temp;Humidity;BMP_temperature;BMP_pressure;BME280_temperature;BME280_humidity;BME280_pressure;Samples;Min_cycle;Max_cycle;Signal;HPM_P1;HPM_P2
2023/10/29 00:01:44;;;;;;;5.47;2.00;;;;;;;;;;6054505;23;20175;-88
2023/10/29 00:04:49;;;;;;;8.40;2.10;;;;;;;;;;6054676;23;20155;-88
2023/10/29 00:07:56;;;;;;;5.38;1.88;;;;;;;;;;6054243;23;20167;-89
2023/10/29 00:11:01;;;;;;;6.72;2.13;;;;;;;;;;6069759;23;20162;-93
2023/10/29 00:14:07;;;;;;;7.22;1.98;;;;;;;;;;6069545;23;20178;-91
2023/10/29 00:17:12;;;;;;;4.63;2.13;;;;;;;;;;6072296;23;20215;-89
2023/10/29 00:20:18;;;;;;;4.80;2.35;;;;;;;;;;6058061;23;20264;-90
2023/10/29 00:23:25;;;;;;;6.03;2.30;;;;;;;;;;6072109;23;20192;-92
2023/10/29 00:26:30;;;;;;;7.88;2.08;;;;;;;;;;6069603;23;20170;-91
2023/10/29 00:29:36;;;;;;;6.38;2.50;;;;;;;;;;6072624;23;20724;-91
2023/10/29 00:32:41;;;;;;;8.98;2.08;;;;;;;;;;6052565;23;20230;-91
2023/10/29 00:35:47;;;;;;;7.78;2.38;;;;;;;;;;6053674;23;20627;-92
2023/10/29 00:38:54;;;;;;;11.88;2.30;;;;;;;;;;6072587;23;20198;-91
2023/10/29 00:41:59;;;;;;;7.55;2.58;;;;;;;;;;6070882;23;20170;-91
2023/10/29 00:45:05;;;;;;;5.47;2.75;;;;;;;;;;6054538;23;20216;-90
2023/10/29 00:48:11;;;;;;;5.30;2.08;;;;;;;;;;6072061;23;20171;-90
2023/10/29 00:51:17;;;;;;;6.53;2.28;;;;;;;;;;6072482;23;20171;-90
2023/10/29 00:54:23;;;;;;;7.05;2.20;;;;;;;;;;6074715;23;20175;-91
2023/10/29 00:57:28;;;;;;;5.80;2.30;;;;;;;;;;6053561;23;20238;-93
2023/10/29 01:00:34;;;;;;;9.25;2.28;;;;;;;;;;6071186;23;20233;-92
2023/10/29 01:03:40;;;;;;;6.13;2.30;;;;;;;;;;6054148;23;20172;-92
2023/10/29 01:06:46;;;;;;;8.30;2.53;;;;;;;;;;6071743;23;20167;-92
2023/10/29 01:09:53;;;;;;;8.00;2.30;;;;;;;;;;6069402;23;20179;-92
2023/10/29 01:12:58;;;;;;;7.85;2.30;;;;;;;;;;6051927;23;20198;-92
2023/10/29 01:16:04;;;;;;;15.20;2.28;;;;;;;;;;6052340;23;20154;-91
2023/10/29 01:19:10;;;;;;;8.60;2.40;;;;;;;;;;6053058;23;20206;-92
2023/10/29 01:22:16;;;;;;;5.18;1.70;;;;;;;;;;6070123;23;20175;-90
2023/10/29 01:25:23;;;;;;;6.07;2.10;;;;;;;;;;6069588;23;20171;-93
2023/10/29 01:28:28;;;;;;;8.68;2.40;;;;;;;;;;6052247;23;20174;-93
2023/10/29 01:31:33;;;;;;;6.38;2.42;;;;;;;;;;6068177;23;20185;-91
2023/10/29 01:34:38;;;;;;;7.03;2.00;;;;;;;;;;6068890;23;20175;-94
2023/10/29 01:37:43;;;;;;;6.72;2.30;;;;;;;;;;6050555;23;20640;-91
2023/10/29 01:40:50;;;;;;;5.60;3.20;;;;;;;;;;6052439;23;20180;-92
2023/10/29 01:43:55;;;;;;;18.40;3.22;;;;;;;;;;6068431;23;20175;-91
2023/10/29 01:47:01;;;;;;;6.80;2.33;;;;;;;;;;6051602;23;20175;-90
2023/10/29 01:50:08;;;;;;;5.57;2.35;;;;;;;;;;6051438;23;20252;-95
2023/10/29 01:53:14;;;;;;;6.15;2.30;;;;;;;;;;6068969;23;20219;-91
2023/10/29 01:56:21;;;;;;;4.60;2.10;;;;;;;;;;6068736;23;20624;-92
2023/10/29 01:59:26;;;;;;;4.47;2.08;;;;;;;;;;6068377;23;20199;-90
2023/10/29 02:02:31;;;;;;;8.00;2.50;;;;;;;;;;6052641;23;20201;-91
2023/10/29 02:05:36;;;;;;;5.60;2.63;;;;;;;;;;6053930;23;20176;-91
2023/10/29 02:08:41;;;;;;;8.32;2.70;;;;;;;;;;6054570;23;20506;-92
2023/10/29 02:11:48;;;;;;;4.22;2.33;;;;;;;;;;6054155;23;20674;-91
2023/10/29 02:14:53;;;;;;;5.30;2.22;;;;;;;;;;6070960;23;20178;-91
2023/10/29 02:17:59;;;;;;;8.90;2.63;;;;;;;;;;6054515;23;20190;-92
2023/10/29 02:21:04;;;;;;;5.70;2.55;;;;;;;;;;6055249;23;20163;-91
2023/10/29 02:24:13;;;;;;;5.38;2.47;;;;;;;;;;6054983;23;20171;-90
2023/10/29 02:27:18;;;;;;;7.18;2.72;;;;;;;;;;6072209;23;20171;-89
2023/10/29 02:30:23;;;;;;;5.78;2.40;;;;;;;;;;6070490;23;20170;-91
2023/10/29 02:33:30;;;;;;;6.68;2.40;;;;;;;;;;6072137;23;20279;-91
2023/10/29 02:36:35;;;;;;;5.55;2.85;;;;;;;;;;6071738;23;20171;-90
2023/10/29 02:39:42;;;;;;;8.60;2.78;;;;;;;;;;6056574;23;20202;-91
2023/10/29 02:42:47;;;;;;;8.65;2.17;;;;;;;;;;6054878;23;20219;-89
2023/10/29 02:45:53;;;;;;;7.20;2.35;;;;;;;;;;6055217;23;20167;-91
2023/10/29 02:48:58;;;;;;;4.95;2.42;;;;;;;;;;6071167;23;20171;-90
2023/10/29 02:52:04;;;;;;;8.35;2.50;;;;;;;;;;6069923;23;20223;-92
2023/10/29 02:55:11;;;;;;;7.63;3.10;;;;;;;;;;6070041;23;20159;-91
2023/10/29 02:58:17;;;;;;;6.47;2.60;;;;;;;;;;6069658;23;20202;-91
2023/10/29 03:01:22;;;;;;;6.63;2.28;;;;;;;;;;6052938;23;20187;-89
2023/10/29 03:04:27;;;;;;;5.93;2.40;;;;;;;;;;6054710;23;20224;-92
2023/10/29 03:07:32;;;;;;;6.78;2.53;;;;;;;;;;6069884;23;20247;-89
2023/10/29 03:10:39;;;;;;;4.50;2.35;;;;;;;;;;6070019;23;20228;-90
2023/10/29 03:13:44;;;;;;;3.83;1.92;;;;;;;;;;6052266;23;20718;-89
2023/10/29 03:16:49;;;;;;;6.88;2.17;;;;;;;;;;6069054;23;20188;-89
2023/10/29 03:19:55;;;;;;;10.93;2.50;;;;;;;;;;6052418;23;20187;-90
2023/10/29 03:23:00;;;;;;;4.97;2.35;;;;;;;;;;6069149;23;20163;-90
2023/10/29 03:26:07;;;;;;;5.90;2.30;;;;;;;;;;6070051;23;20167;-89
2023/10/29 03:29:12;;;;;;;6.15;2.17;;;;;;;;;;6051110;23;20175;-89
2023/10/29 03:32:17;;;;;;;5.57;2.58;;;;;;;;;;6068823;23;20174;-93
2023/10/29 03:35:23;;;;;;;5.45;2.40;;;;;;;;;;6070079;23;20154;-91
2023/10/29 03:38:28;;;;;;;7.07;2.63;;;;;;;;;;6070365;23;20267;-92
2023/10/29 03:41:34;;;;;;;7.55;2.05;;;;;;;;;;6069785;23;20216;-90
2023/10/29 03:44:40;;;;;;;5.30;2.50;;;;;;;;;;6071679;23;20170;-90
2023/10/29 03:47:45;;;;;;;5.95;2.35;;;;;;;;;;6069351;23;20170;-91
2023/10/29 03:50:50;;;;;;;4.95;2.33;;;;;;;;;;6069122;23;20171;-90
2023/10/29 03:53:55;;;;;;;4.95;2.45;;;;;;;;;;6052261;23;20208;-90
2023/10/29 03:57:01;;;;;;;7.03;2.83;;;;;;;;;;6068043;23;20280;-91
2023/10/29 04:00:08;;;;;;;6.57;2.28;;;;;;;;;;6068361;23;20257;-90
2023/10/29 04:03:17;;;;;;;6.03;2.67;;;;;;;;;;6051803;23;20179;-93
2023/10/29 04:06:22;;;;;;;5.32;2.83;;;;;;;;;;6052530;23;20158;-91
2023/10/29 04:09:27;;;;;;;8.45;2.80;;;;;;;;;;6052814;23;20229;-91
2023/10/29 04:12:35;;;;;;;7.65;2.47;;;;;;;;;;6068890;23;20207;-90
2023/10/29 04:15:42;;;;;;;4.70;2.42;;;;;;;;;;6055369;23;20175;-91
2023/10/29 04:18:47;;;;;;;6.57;2.60;;;;;;;;;;6052672;23;20243;-92
2023/10/29 04:21:52;;;;;;;5.53;2.45;;;;;;;;;;6069965;23;20220;-92
2023/10/29 04:24:57;;;;;;;7.72;2.50;;;;;;;;;;6069152;23;20158;-93
2023/10/29 04:28:05;;;;;;;6.70;3.03;;;;;;;;;;6052704;23;20618;-90
2023/10/29 04:31:10;;;;;;;4.70;2.57;;;;;;;;;;6073311;23;20179;-90
2023/10/29 04:34:15;;;;;;;7.73;2.73;;;;;;;;;;6053876;23;20171;-93
2023/10/29 04:37:22;;;;;;;6.80;3.10;;;;;;;;;;6069922;23;20170;-90
2023/10/29 04:40:27;;;;;;;5.33;2.60;;;;;;;;;;6069565;23;20279;-91
2023/10/29 04:43:34;;;;;;;6.30;2.70;;;;;;;;;;6068267;23;20154;-93
2023/10/29 04:46:39;;;;;;;6.05;2.80;;;;;;;;;;6067607;23;20184;-91
2023/10/29 04:49:44;;;;;;;6.63;2.70;;;;;;;;;;6052904;23;20167;-92
2023/10/29 04:52:49;;;;;;;10.30;2.60;;;;;;;;;;6053231;23;20175;-90
2023/10/29 04:55:54;;;;;;;6.77;2.83;;;;;;;;;;6051455;23;20172;-88
2023/10/29 04:59:00;;;;;;;5.88;2.65;;;;;;;;;;6051623;23;20764;-90
2023/10/29 05:02:06;;;;;;;10.67;2.90;;;;;;;;;;6066995;23;20167;-90
2023/10/29 05:05:12;;;;;;;5.03;2.50;;;;;;;;;;6068502;23;20192;-91
2023/10/29 05:08:17;;;;;;;6.03;2.53;;;;;;;;;;6068506;23;20508;-89
2023/10/29 05:11:23;;;;;;;6.53;3.00;;;;;;;;;;6066320;23;20194;-91
2023/10/29 05:14:30;;;;;;;15.63;3.60;;;;;;;;;;6069095;23;20234;-89
2023/10/29 05:17:35;;;;;;;6.70;3.00;;;;;;;;;;6053118;23;20155;-92
2023/10/29 05:20:40;;;;;;;11.97;3.37;;;;;;;;;;6053360;23;20198;-89
2023/10/29 05:23:45;;;;;;;12.60;2.90;;;;;;;;;;6072033;23;20240;-90
2023/10/29 05:26:51;;;;;;;8.93;3.23;;;;;;;;;;6073091;23;20302;-92
2023/10/29 05:29:59;;;;;;;6.60;2.97;;;;;;;;;;6071661;23;20216;-91
2023/10/29 05:33:05;;;;;;;11.33;2.83;;;;;;;;;;6056531;23;20507;-89
2023/10/29 05:36:11;;;;;;;10.57;3.93;;;;;;;;;;6071259;23;20192;-92
2023/10/29 05:39:17;;;;;;;7.77;3.27;;;;;;;;;;6072066;23;20245;-90
2023/10/29 05:42:22;;;;;;;6.60;3.60;;;;;;;;;;6055549;23;20155;-90
2023/10/29 05:45:29;;;;;;;8.87;3.30;;;;;;;;;;6070874;23;20159;-92
2023/10/29 05:48:34;;;;;;;10.97;3.60;;;;;;;;;;6070780;23;20192;-89
2023/10/29 05:51:39;;;;;;;11.57;3.30;;;;;;;;;;6053659;23;20159;-91
2023/10/29 05:54:44;;;;;;;8.03;3.20;;;;;;;;;;6070556;23;20154;-91
2023/10/29 05:57:50;;;;;;;5.23;2.80;;;;;;;;;;6070494;23;20226;-89
2023/10/29 06:00:57;;;;;;;6.57;3.13;;;;;;;;;;6071883;23;20199;-88
2023/10/29 06:04:02;;;;;;;11.03;3.30;;;;;;;;;;6069699;23;20225;-90
2023/10/29 06:07:07;;;;;;;8.83;3.00;;;;;;;;;;6054632;23;20159;-92
2023/10/29 06:10:14;;;;;;;7.87;3.03;;;;;;;;;;6069587;23;20175;-91
2023/10/29 06:13:20;;;;;;;4.67;2.70;;;;;;;;;;6070201;23;20235;-91
2023/10/29 06:16:26;;;;;;;13.95;2.92;;;;;;;;;;6070287;23;20171;-91
2023/10/29 06:19:34;;;;;;;9.30;3.83;;;;;;;;;;6070056;23;20220;-89
2023/10/29 06:22:39;;;;;;;5.67;3.07;;;;;;;;;;6054601;23;20279;-92
2023/10/29 06:25:45;;;;;;;11.37;4.97;;;;;;;;;;6070682;23;20171;-91
2023/10/29 06:28:50;;;;;;;6.20;3.20;;;;;;;;;;6072073;23;20167;-91
2023/10/29 06:31:57;;;;;;;5.83;3.37;;;;;;;;;;6071326;23;20171;-93
2023/10/29 06:35:06;;;;;;;5.97;3.50;;;;;;;;;;6070452;23;20158;-90
2023/10/29 06:38:11;;;;;;;9.83;3.23;;;;;;;;;;6072509;23;20172;-91
2023/10/29 06:41:17;;;;;;;9.87;3.77;;;;;;;;;;6053609;23;20214;-91
2023/10/29 06:44:22;;;;;;;8.15;3.83;;;;;;;;;;6070864;23;20151;-92
2023/10/29 06:47:28;;;;;;;35.90;4.68;;;;;;;;;;6071516;23;20627;-92
2023/10/29 06:50:35;;;;;;;7.03;3.63;;;;;;;;;;6070839;23;20170;-88
2023/10/29 06:53:40;;;;;;;11.50;4.43;;;;;;;;;;6070584;23;20684;-88
2023/10/29 06:56:45;;;;;;;10.63;3.97;;;;;;;;;;6053589;23;20192;-89
2023/10/29 06:59:50;;;;;;;220.02;76.90;;;;;;;;;;6071446;23;20199;-89
2023/10/29 07:02:57;;;;;;;28.25;12.27;;;;;;;;;;6054321;23;20205;-92
2023/10/29 07:06:09;;;;;;;8.88;4.32;;;;;;;;;;6053016;23;20200;-90
2023/10/29 07:09:15;;;;;;;6.13;3.50;;;;;;;;;;6052304;23;20216;-91
2023/10/29 07:12:20;;;;;;;7.07;3.80;;;;;;;;;;6055083;23;20195;-92
2023/10/29 07:15:26;;;;;;;6.53;3.92;;;;;;;;;;6054990;23;20175;-90
2023/10/29 07:18:33;;;;;;;7.57;3.65;;;;;;;;;;6054481;23;20175;-92
2023/10/29 07:21:38;;;;;;;6.90;4.28;;;;;;;;;;6070239;23;20175;-90
2023/10/29 07:24:44;;;;;;;14.77;4.70;;;;;;;;;;6053899;23;20189;-90
2023/10/29 07:27:49;;;;;;;8.80;4.30;;;;;;;;;;6056950;23;20171;-90
2023/10/29 07:30:55;;;;;;;12.98;5.07;;;;;;;;;;6070475;23;20201;-91
2023/10/29 07:34:02;;;;;;;9.20;3.77;;;;;;;;;;6054076;23;20171;-90
2023/10/29 07:37:07;;;;;;;5.95;3.78;;;;;;;;;;6070093;23;20171;-88
2023/10/29 07:40:13;;;;;;;8.85;3.88;;;;;;;;;;6054917;23;20244;-91
2023/10/29 07:43:23;;;;;;;6.72;3.80;;;;;;;;;;6075038;23;20156;-91
2023/10/29 07:46:28;;;;;;;7.38;3.55;;;;;;;;;;6074376;23;20197;-90
2023/10/29 07:49:37;;;;;;;7.95;3.97;;;;;;;;;;6075299;23;20179;-92
2023/10/29 07:52:43;;;;;;;29.95;8.30;;;;;;;;;;6075346;23;20163;-92
2023/10/29 07:55:49;;;;;;;14.02;6.10;;;;;;;;;;6074936;23;20159;-89
2023/10/29 07:58:54;;;;;;;7.57;3.75;;;;;;;;;;6059390;23;20172;-90
2023/10/29 08:02:00;;;;;;;10.85;3.50;;;;;;;;;;6075602;23;20239;-89
2023/10/29 08:05:18;;;;;;;6.20;3.45;;;;;;;;;;6075739;23;20207;-90
2023/10/29 08:08:25;;;;;;;7.07;3.88;;;;;;;;;;6075702;23;20226;-92
2023/10/29 08:11:33;;;;;;;7.45;2.88;;;;;;;;;;6076451;23;20198;-91
2023/10/29 08:14:40;;;;;;;6.28;3.25;;;;;;;;;;6076617;23;20175;-89
2023/10/29 08:17:46;;;;;;;7.45;3.13;;;;;;;;;;6058238;23;20203;-91
2023/10/29 08:20:58;;;;;;;6.82;2.78;;;;;;;;;;6059469;23;20243;-90
2023/10/29 08:24:04;;;;;;;4.70;2.65;;;;;;;;;;6075861;23;20188;-93
2023/10/29 08:27:09;;;;;;;5.90;2.67;;;;;;;;;;6074124;23;20196;-90
2023/10/29 08:30:15;;;;;;;7.25;2.95;;;;;;;;;;6074642;23;20170;-89
2023/10/29 08:33:21;;;;;;;4.25;2.55;;;;;;;;;;6057199;23;20162;-90
2023/10/29 08:36:29;;;;;;;9.98;2.78;;;;;;;;;;6074702;23;20155;-89
2023/10/29 08:39:36;;;;;;;6.05;2.80;;;;;;;;;;6056254;23;20175;-92
2023/10/29 08:42:41;;;;;;;6.70;2.70;;;;;;;;;;6073382;23;20171;-90
2023/10/29 08:45:47;;;;;;;8.60;2.55;;;;;;;;;;6056383;23;20251;-90
2023/10/29 08:48:53;;;;;;;7.28;3.15;;;;;;;;;;6071197;23;20162;-90
2023/10/29 08:52:01;;;;;;;7.72;2.50;;;;;;;;;;6058141;23;20171;-93
2023/10/29 08:55:08;;;;;;;6.78;2.70;;;;;;;;;;6073624;23;20194;-94
2023/10/29 08:58:14;;;;;;;6.25;2.60;;;;;;;;;;6072256;23;20224;-87
2023/10/29 09:01:20;;;;;;;7.40;2.42;;;;;;;;;;6074714;23;20198;-91
2023/10/29 09:04:26;;;;;;;5.88;2.38;;;;;;;;;;6073707;23;20207;-92
2023/10/29 09:07:33;;;;;;;5.35;2.30;;;;;;;;;;6076296;23;20179;-90
2023/10/29 09:10:42;;;;;;;5.38;2.50;;;;;;;;;;6072970;23;20251;-90
2023/10/29 09:13:47;;;;;;;4.63;2.20;;;;;;;;;;6071397;23;20179;-89
2023/10/29 09:16:53;;;;;;;6.35;2.22;;;;;;;;;;6071111;23;20176;-92
2023/10/29 09:19:59;;;;;;;8.48;2.47;;;;;;;;;;6057573;23;20194;-91
2023/10/29 09:23:10;;;;;;;6.55;2.38;;;;;;;;;;6075354;23;20264;-91
2023/10/29 09:26:16;;;;;;;5.45;2.63;;;;;;;;;;6073981;23;20171;-89
2023/10/29 09:29:23;;;;;;;9.80;2.40;;;;;;;;;;6072079;23;20184;-93
2023/10/29 09:32:29;;;;;;;7.10;2.40;;;;;;;;;;6072833;23;20154;-91
2023/10/29 09:35:34;;;;;;;4.88;1.95;;;;;;;;;;6056746;23;20167;-89
2023/10/29 09:38:42;;;;;;;4.57;1.67;;;;;;;;;;6073275;23;20171;-89
2023/10/29 09:41:48;;;;;;;8.30;1.80;;;;;;;;;;6072912;23;20202;-91
2023/10/29 09:44:57;;;;;;;3.75;1.70;;;;;;;;;;6074544;23;20183;-90
2023/10/29 09:48:04;;;;;;;3.30;1.50;;;;;;;;;;6073258;23;20162;-90
2023/10/29 09:51:09;;;;;;;4.85;1.80;;;;;;;;;;6073769;23;20170;-91
2023/10/29 09:54:17;;;;;;;3.50;1.50;;;;;;;;;;6055198;23;20183;-91
2023/10/29 09:57:22;;;;;;;2.40;1.35;;;;;;;;;;6072523;23;20233;-90
2023/10/29 10:00:29;;;;;;;7.95;2.03;;;;;;;;;;6085151;23;20191;-91
2023/10/29 10:03:35;;;;;;;2.22;1.13;;;;;;;;;;6087348;23;20162;-90
2023/10/29 10:06:44;;;;;;;3.10;1.23;;;;;;;;;;6086875;23;20178;-90
2023/10/29 10:09:57;;;;;;;3.22;1.15;;;;;;;;;;6085895;23;20219;-91
2023/10/29 10:13:04;;;;;;;5.47;1.90;;;;;;;;;;6087046;23;20176;-90
2023/10/29 10:16:10;;;;;;;4.95;1.50;;;;;;;;;;6088595;23;20175;-90
2023/10/29 10:19:16;;;;;;;5.13;1.00;;;;;;;;;;6086248;23;20163;-91
2023/10/29 10:22:35;;;;;;;4.05;1.42;;;;;;;;;;6085665;23;20175;-92
2023/10/29 10:25:42;;;;;;;3.95;1.20;;;;;;;;;;6086402;23;20192;-92
2023/10/29 10:28:57;;;;;;;4.53;1.38;;;;;;;;;;6085161;23;20174;-88
2023/10/29 10:32:03;;;;;;;2.47;1.30;;;;;;;;;;6084625;23;20591;-88
2023/10/29 10:35:09;;;;;;;3.85;1.23;;;;;;;;;;6102666;23;20214;-89
2023/10/29 10:38:16;;;;;;;2.85;1.15;;;;;;;;;;6085818;23;20174;-93
2023/10/29 10:41:23;;;;;;;3.35;1.50;;;;;;;;;;6084161;23;20182;-90
2023/10/29 10:44:30;;;;;;;2.58;1.10;;;;;;;;;;6084442;23;20223;-90
2023/10/29 10:47:36;;;;;;;3.83;1.23;;;;;;;;;;6100919;23;20215;-88
2023/10/29 10:50:43;;;;;;;2.80;1.30;;;;;;;;;;6084417;23;20186;-89
2023/10/29 10:53:49;;;;;;;3.03;1.40;;;;;;;;;;6084014;23;20631;-91
2023/10/29 10:56:57;;;;;;;2.25;1.20;;;;;;;;;;6085075;23;20203;-93
2023/10/29 11:00:05;;;;;;;1.65;0.93;;;;;;;;;;6083427;23;20170;-90
2023/10/29 11:03:11;;;;;;;5.18;1.33;;;;;;;;;;6084694;23;20158;-89
2023/10/29 11:06:20;;;;;;;2.67;1.20;;;;;;;;;;6085678;23;20191;-92
2023/10/29 11:09:31;;;;;;;4.75;2.30;;;;;;;;;;6086384;23;20174;-91
2023/10/29 11:12:39;;;;;;;3.95;1.50;;;;;;;;;;6085585;23;20162;-90
2023/10/29 11:15:47;;;;;;;2.75;1.25;;;;;;;;;;6085161;23;20167;-91
2023/10/29 11:18:53;;;;;;;5.47;2.90;;;;;;;;;;6084807;23;20174;-91
2023/10/29 11:22:13;;;;;;;3.92;1.42;;;;;;;;;;6086503;23;20199;-90
2023/10/29 11:25:30;;;;;;;1.73;1.00;;;;;;;;;;6101926;23;20166;-91
2023/10/29 11:28:46;;;;;;;5.45;1.80;;;;;;;;;;6085940;23;20500;-89
2023/10/29 11:32:13;;;;;;;2.75;1.08;;;;;;;;;;6085884;23;20277;-91
2023/10/29 11:35:19;;;;;;;4.05;1.73;;;;;;;;;;6087544;23;20159;-91
2023/10/29 11:38:29;;;;;;;3.03;1.40;;;;;;;;;;6090128;23;20228;-92
2023/10/29 11:41:39;;;;;;;3.15;1.30;;;;;;;;;;6085595;23;20201;-91
2023/10/29 11:44:46;;;;;;;4.70;1.63;;;;;;;;;;6084858;23;20221;-93
2023/10/29 11:48:11;;;;;;;4.15;1.38;;;;;;;;;;6083606;23;20236;-92
2023/10/29 11:51:21;;;;;;;3.58;1.35;;;;;;;;;;6085940;23;20182;-90
2023/10/29 11:54:27;;;;;;;3.00;0.98;;;;;;;;;;6087416;23;20162;-92
2023/10/29 11:57:41;;;;;;;4.85;1.10;;;;;;;;;;6087386;23;20198;-91
2023/10/29 12:04:08;;;;;;;4.05;1.40;;;;;;;;;;6086340;23;20170;-91
2023/10/29 12:07:24;;;;;;;3.30;1.30;;;;;;;;;;6085230;23;20171;-92
2023/10/29 12:10:30;;;;;;;5.13;1.55;;;;;;;;;;6086284;23;20174;-90
2023/10/29 12:13:42;;;;;;;5.32;1.40;;;;;;;;;;6085141;23;20171;-90
2023/10/29 12:16:50;;;;;;;2.35;1.10;;;;;;;;;;6084660;23;20171;-90
2023/10/29 12:19:55;;;;;;;2.85;1.15;;;;;;;;;;6085301;23;20216;-92
2023/10/29 12:26:23;;;;;;;6.05;1.70;;;;;;;;;;6085437;23;20171;-92
2023/10/29 12:29:28;;;;;;;8.32;2.08;;;;;;;;;;6086105;23;20166;-91
2023/10/29 12:32:35;;;;;;;4.32;1.60;;;;;;;;;;6086616;23;20171;-91
2023/10/29 12:35:43;;;;;;;6.15;1.40;;;;;;;;;;6085459;23;20165;-91
2023/10/29 12:38:51;;;;;;;3.17;1.23;;;;;;;;;;6085870;23;20191;-93
2023/10/29 12:41:57;;;;;;;4.70;1.73;;;;;;;;;;6084540;23;20219;-92
2023/10/29 12:45:02;;;;;;;4.05;2.10;;;;;;;;;;6084871;23;20215;-92
2023/10/29 12:48:14;;;;;;;5.53;2.58;;;;;;;;;;6086776;23;20191;-93
2023/10/29 12:51:24;;;;;;;3.97;1.80;;;;;;;;;;6086862;23;20178;-91
2023/10/29 12:54:33;;;;;;;7.05;2.45;;;;;;;;;;6086547;23;20222;-89
2023/10/29 12:57:39;;;;;;;9.35;2.75;;;;;;;;;;6086216;23;20183;-92
2023/10/29 13:00:44;;;;;;;6.25;2.20;;;;;;;;;;6102780;23;20150;-92
2023/10/29 13:03:52;;;;;;;4.63;1.80;;;;;;;;;;6085770;23;20182;-91
2023/10/29 13:07:07;;;;;;;30.13;15.00;;;;;;;;;;6084140;23;20222;-90
2023/10/29 13:10:16;;;;;;;2.05;1.40;;;;;;;;;;6100221;23;20175;-93
2023/10/29 13:13:44;;;;;;;2.78;1.00;;;;;;;;;;6083098;23;20178;-92
2023/10/29 13:25:16;;;;;;;3.08;1.60;;;;;;;;;;6006443;23;20192;-92
2023/10/29 13:32:20;;;;;;;4.13;1.70;;;;;;;;;;6029004;23;20184;-92
2023/10/29 14:02:21;;;;;;;3.83;1.63;;;;;;;;;;6089421;23;20198;-92
2023/10/29 14:05:28;;;;;;;4.57;1.42;;;;;;;;;;6089899;23;20175;-91
2023/10/29 14:08:34;;;;;;;7.22;1.80;;;;;;;;;;6089392;23;20299;-90
2023/10/29 14:11:41;;;;;;;5.07;1.52;;;;;;;;;;6090204;23;20154;-90
2023/10/29 14:15:03;;;;;;;2.85;1.30;;;;;;;;;;6107665;23;20196;-94
2023/10/29 14:28:35;;;;;;;3.65;1.30;;;;;;;;;;6087713;23;20198;-91
2023/10/29 14:31:41;;;;;;;5.05;1.73;;;;;;;;;;6103905;23;20222;-90
2023/10/29 14:34:56;;;;;;;8.77;1.70;;;;;;;;;;6087042;23;20208;-91
2023/10/29 14:38:03;;;;;;;7.15;1.65;;;;;;;;;;6086627;23;20227;-90
2023/10/29 14:44:42;;;;;;;4.75;1.52;;;;;;;;;;6090831;23;20155;-92
2023/10/29 14:48:00;;;;;;;6.97;2.25;;;;;;;;;;6089557;23;20219;-91
2023/10/29 14:51:06;;;;;;;3.22;1.42;;;;;;;;;;6090522;23;20171;-91
2023/10/29 14:54:21;;;;;;;3.15;1.60;;;;;;;;;;6090774;23;20178;-93
2023/10/29 14:57:54;;;;;;;5.47;2.17;;;;;;;;;;6089138;23;20195;-92
2023/10/29 15:01:04;;;;;;;139.43;41.50;;;;;;;;;;6089002;23;20255;-91
2023/10/29 15:04:20;;;;;;;79.13;27.92;;;;;;;;;;6106106;23;20167;-94
2023/10/29 15:11:09;;;;;;;37.88;14.82;;;;;;;;;;6063210;23;20626;-92
2023/10/29 15:17:50;;;;;;;21.00;9.10;;;;;;;;;;6088286;23;20175;-92
2023/10/29 15:20:56;;;;;;;15.32;7.28;;;;;;;;;;6088383;23;20186;-92
2023/10/29 15:24:03;;;;;;;7.97;3.40;;;;;;;;;;6088939;23;20174;-92
2023/10/29 15:27:09;;;;;;;11.48;4.43;;;;;;;;;;6087879;23;20196;-91
2023/10/29 15:30:15;;;;;;;11.82;4.18;;;;;;;;;;6087433;23;20178;-90
2023/10/29 15:33:23;;;;;;;5.53;2.20;;;;;;;;;;6104578;23;20165;-92
2023/10/29 15:36:29;;;;;;;4.47;2.20;;;;;;;;;;6106825;23;20513;-92
2023/10/29 15:46:15;;;;;;;3.70;1.63;;;;;;;;;;6089868;23;20195;-91
2023/10/29 15:49:26;;;;;;;5.32;2.08;;;;;;;;;;6089860;23;20158;-90
2023/10/29 15:52:39;;;;;;;9.95;2.00;;;;;;;;;;6105624;23;20176;-92
2023/10/29 15:55:52;;;;;;;4.25;2.17;;;;;;;;;;6090165;23;20167;-92
2023/10/29 15:59:02;;;;;;;7.53;3.25;;;;;;;;;;6089002;23;20155;-90
2023/10/29 16:08:59;;;;;;;65.18;31.42;;;;;;;;;;6084484;23;20275;-91
2023/10/29 16:12:08;;;;;;;17.80;10.02;;;;;;;;;;6086549;23;20236;-91
2023/10/29 16:15:14;;;;;;;7.93;4.53;;;;;;;;;;6103676;23;20246;-91
2023/10/29 16:18:21;;;;;;;5.65;3.42;;;;;;;;;;6088618;23;20183;-92
2023/10/29 16:21:26;;;;;;;5.47;1.88;;;;;;;;;;6078357;23;20221;-90
2023/10/29 16:24:32;;;;;;;6.70;2.22;;;;;;;;;;6088527;23;20150;-91
2023/10/29 16:30:44;;;;;;;10.88;3.17;;;;;;;;;;6064862;23;20211;-92
2023/10/29 16:37:10;;;;;;;8.95;4.00;;;;;;;;;;6087082;23;20214;-91
2023/10/29 16:40:16;;;;;;;6.53;3.88;;;;;;;;;;6087081;23;20178;-91
2023/10/29 16:43:23;;;;;;;10.38;4.53;;;;;;;;;;6086521;23;20201;-91
2023/10/29 16:46:31;;;;;;;9.20;3.90;;;;;;;;;;6086813;23;20183;-93
2023/10/29 16:49:38;;;;;;;9.75;3.80;;;;;;;;;;6086634;23;20199;-92
2023/10/29 16:52:44;;;;;;;14.02;3.92;;;;;;;;;;6059777;23;20638;-90
2023/10/29 16:55:50;;;;;;;7.93;3.67;;;;;;;;;;6087858;23;20181;-91
2023/10/29 16:59:05;;;;;;;16.10;7.85;;;;;;;;;;6086724;23;20188;-92
2023/10/29 17:02:13;;;;;;;20.77;10.18;;;;;;;;;;6086421;23;20251;-90
2023/10/29 17:05:21;;;;;;;11.93;6.40;;;;;;;;;;6086503;23;20171;-93
2023/10/29 17:08:27;;;;;;;13.98;6.55;;;;;;;;;;6085698;23;20236;-91
2023/10/29 17:11:32;;;;;;;10.45;4.82;;;;;;;;;;6100572;23;20196;-92
2023/10/29 17:14:38;;;;;;;13.05;6.35;;;;;;;;;;6083889;23;20178;-91
2023/10/29 17:17:45;;;;;;;7.25;3.50;;;;;;;;;;6084046;23;20175;-92
2023/10/29 17:20:54;;;;;;;10.52;4.10;;;;;;;;;;6104121;23;20174;-92
2023/10/29 17:24:03;;;;;;;9.02;4.40;;;;;;;;;;6087468;23;20202;-91
2023/10/29 17:27:08;;;;;;;8.98;4.10;;;;;;;;;;6087431;23;20196;-90
2023/10/29 17:30:14;;;;;;;9.73;3.78;;;;;;;;;;6087090;23;20162;-88
2023/10/29 17:33:23;;;;;;;8.65;4.25;;;;;;;;;;6088052;23;20166;-90
2023/10/29 17:36:29;;;;;;;9.15;3.80;;;;;;;;;;6086087;23;20270;-89
2023/10/29 17:39:35;;;;;;;6.88;3.85;;;;;;;;;;6087740;23;20170;-90
2023/10/29 17:42:41;;;;;;;8.40;4.32;;;;;;;;;;6087077;23;20194;-92
2023/10/29 17:45:47;;;;;;;13.93;5.55;;;;;;;;;;6086388;23;20167;-92
2023/10/29 17:48:55;;;;;;;9.88;4.85;;;;;;;;;;6086511;23;20171;-90
2023/10/29 17:52:04;;;;;;;15.95;5.53;;;;;;;;;;6086057;23;20243;-91
2023/10/29 17:55:11;;;;;;;18.58;7.18;;;;;;;;;;6085678;23;20242;-91
2023/10/29 17:58:19;;;;;;;15.15;6.85;;;;;;;;;;6088452;23;20170;-91
2023/10/29 18:01:27;;;;;;;45.90;18.08;;;;;;;;;;6086634;23;20170;-90
2023/10/29 18:04:40;;;;;;;40.00;14.70;;;;;;;;;;6089086;23;20162;-92
2023/10/29 18:07:46;;;;;;;19.08;8.25;;;;;;;;;;6087797;23;20188;-91
2023/10/29 18:10:53;;;;;;;18.25;8.23;;;;;;;;;;6089426;23;20170;-92
2023/10/29 18:14:01;;;;;;;22.17;9.10;;;;;;;;;;6089222;23;20181;-91
2023/10/29 18:17:08;;;;;;;22.02;10.48;;;;;;;;;;6090597;23;20179;-91
2023/10/29 18:20:21;;;;;;;19.38;7.47;;;;;;;;;;6088346;23;20169;-91
2023/10/29 18:23:36;;;;;;;17.83;7.90;;;;;;;;;;6090380;23;20263;-91
2023/10/29 18:26:43;;;;;;;16.67;6.18;;;;;;;;;;6089000;23;20163;-91
2023/10/29 18:29:51;;;;;;;13.82;6.20;;;;;;;;;;6087939;23;20200;-90
2023/10/29 18:32:58;;;;;;;16.13;5.72;;;;;;;;;;6086179;23;20219;-90
2023/10/29 18:36:10;;;;;;;14.30;5.90;;;;;;;;;;6090010;23;20171;-91
2023/10/29 18:39:16;;;;;;;17.38;7.25;;;;;;;;;;6106622;23;20270;-90
2023/10/29 18:42:22;;;;;;;14.43;6.60;;;;;;;;;;6089405;23;20197;-90
2023/10/29 18:45:29;;;;;;;13.57;6.70;;;;;;;;;;6089032;23;20230;-92
2023/10/29 18:48:35;;;;;;;19.70;8.15;;;;;;;;;;6088639;23;20215;-91
2023/10/29 18:51:42;;;;;;;25.58;6.65;;;;;;;;;;6089060;23;20169;-91
2023/10/29 18:54:53;;;;;;;16.73;6.80;;;;;;;;;;6087760;23;20163;-92
2023/10/29 18:58:01;;;;;;;18.52;7.28;;;;;;;;;;6089524;23;20237;-89
2023/10/29 19:01:11;;;;;;;22.20;7.88;;;;;;;;;;6089625;23;20215;-92
2023/10/29 19:04:30;;;;;;;22.73;7.55;;;;;;;;;;6090954;23;20203;-91
2023/10/29 19:07:50;;;;;;;19.85;7.88;;;;;;;;;;6091719;23;20224;-92
2023/10/29 19:11:13;;;;;;;15.90;7.35;;;;;;;;;;6089973;23;20166;-89
2023/10/29 19:14:26;;;;;;;20.13;7.50;;;;;;;;;;6090526;23;20166;-92
2023/10/29 19:21:06;;;;;;;16.90;7.10;;;;;;;;;;6087527;23;20261;-90
2023/10/29 19:24:12;;;;;;;19.85;7.40;;;;;;;;;;6088066;23;20201;-92
2023/10/29 19:27:17;;;;;;;17.95;6.68;;;;;;;;;;6088620;23;20178;-92
2023/10/29 19:33:45;;;;;;;15.20;5.82;;;;;;;;;;6086642;23;20170;-91
2023/10/29 19:36:50;;;;;;;14.48;6.03;;;;;;;;;;6105059;23;20158;-92
2023/10/29 19:39:58;;;;;;;23.30;5.65;;;;;;;;;;6086327;23;20224;-92
2023/10/29 19:43:03;;;;;;;17.40;6.60;;;;;;;;;;6086867;23;20186;-91
2023/10/29 19:46:11;;;;;;;14.38;5.90;;;;;;;;;;6084894;23;20207;-88
2023/10/29 19:49:19;;;;;;;25.80;9.60;;;;;;;;;;6085349;23;20167;-92
2023/10/29 19:52:25;;;;;;;16.50;7.85;;;;;;;;;;6085168;23;20178;-92
2023/10/29 19:55:30;;;;;;;16.98;7.03;;;;;;;;;;6086191;23;20171;-92
2023/10/29 19:58:36;;;;;;;10.38;5.88;;;;;;;;;;6085650;23;20170;-92
2023/10/29 20:01:44;;;;;;;11.02;5.68;;;;;;;;;;6083773;23;20179;-91
2023/10/29 20:05:02;;;;;;;27.67;14.43;;;;;;;;;;6086621;23;20158;-92
2023/10/29 20:08:10;;;;;;;15.90;8.23;;;;;;;;;;6089341;23;20805;-92
2023/10/29 20:11:19;;;;;;;12.38;5.40;;;;;;;;;;6087804;23;20219;-91